createdAt,value
2022-11-22T00:00:33.336Z,23.95
2022-11-22T00:02:36.867Z,25.38
2022-11-22T00:04:40.321Z,26.95
2022-11-22T00:06:43.734Z,24.25
2022-11-22T00:08:47.199Z,22.67
2022-11-22T00:10:50.900Z,27.75
2022-11-22T00:12:56.081Z,31.65
2022-11-22T00:14:59.528Z,27.20
2022-11-22T00:17:02.900Z,23.02
2022-11-22T00:19:06.455Z,27.85
2022-11-22T00:21:09.930Z,26.05
2022-11-22T00:23:13.201Z,29.83
2022-11-22T00:25:16.950Z,28.83
2022-11-22T00:27:21.010Z,40.60
2022-11-22T00:29:25.633Z,31.92
2022-11-22T00:31:29.035Z,40.40
2022-11-22T00:33:32.406Z,38.00
2022-11-22T00:35:35.711Z,56.83
2022-11-22T00:37:39.110Z,88.50
2022-11-22T00:39:42.471Z,47.92
2022-11-22T00:41:45.763Z,46.92
2022-11-22T00:43:49.154Z,62.50
2022-11-22T00:45:54.305Z,79.13
2022-11-22T00:47:57.598Z,38.47
2022-11-22T00:50:00.925Z,27.00
2022-11-22T00:52:04.276Z,46.28
2022-11-22T00:54:08.103Z,39.90
2022-11-22T00:56:11.427Z,46.70
2022-11-22T00:58:14.757Z,27.05
2022-11-22T01:00:18.889Z,22.35
2022-11-22T01:02:23.596Z,36.05
2022-11-22T01:04:26.996Z,37.38
2022-11-22T01:06:30.565Z,34.08
2022-11-22T01:08:33.928Z,31.45
2022-11-22T01:10:37.553Z,27.75
2022-11-22T01:12:40.905Z,29.05
2022-11-22T01:14:44.255Z,31.48
2022-11-22T01:16:47.935Z,58.40
2022-11-22T01:18:52.684Z,25.02
2022-11-22T01:20:56.074Z,48.45
2022-11-22T01:22:59.543Z,42.58
2022-11-22T01:25:02.957Z,28.13
2022-11-22T01:27:06.329Z,27.75
2022-11-22T01:29:09.641Z,21.52
2022-11-22T01:31:12.949Z,19.55
2022-11-22T01:33:16.261Z,19.90
2022-11-22T01:35:21.127Z,17.92
2022-11-22T01:37:24.449Z,17.50
2022-11-22T01:39:28.429Z,15.98
2022-11-22T01:41:31.966Z,18.00
2022-11-22T01:43:35.364Z,21.00
2022-11-22T01:45:44.770Z,19.17
2022-11-22T01:47:48.160Z,16.33
2022-11-22T01:49:56.336Z,25.42
2022-11-22T01:52:07.012Z,32.63
2022-11-22T01:54:14.281Z,22.35
2022-11-22T01:56:21.295Z,68.28
2022-11-22T01:58:25.963Z,28.35
2022-11-22T02:00:29.397Z,52.85
2022-11-22T02:02:32.837Z,47.33
2022-11-22T02:04:38.134Z,37.38
2022-11-22T02:06:48.164Z,63.10
2022-11-22T02:08:58.004Z,41.30
2022-11-22T02:11:03.905Z,23.80
2022-11-22T02:13:09.345Z,37.35
2022-11-22T02:15:13.205Z,74.30
2022-11-22T02:17:16.691Z,68.38
2022-11-22T02:19:24.672Z,71.13
2022-11-22T02:21:28.647Z,48.15
2022-11-22T02:23:42.684Z,87.80
2022-11-22T02:25:55.504Z,76.55
2022-11-22T02:27:58.873Z,46.22
2022-11-22T02:30:02.235Z,136.40
2022-11-22T02:32:05.661Z,118.75
2022-11-22T02:34:09.762Z,45.28
2022-11-22T02:36:13.776Z,64.88
2022-11-22T02:38:19.536Z,119.03
2022-11-22T02:40:23.728Z,132.10
2022-11-22T02:42:31.697Z,61.97
2022-11-22T02:44:35.609Z,138.82
2022-11-22T02:46:48.348Z,149.60
2022-11-22T02:48:51.884Z,50.47
2022-11-22T02:50:55.206Z,121.93
2022-11-22T02:52:58.663Z,41.45
2022-11-22T02:55:02.032Z,40.88
2022-11-22T02:57:05.566Z,91.93
2022-11-22T02:59:10.559Z,61.00
2022-11-22T03:01:14.699Z,40.08
2022-11-22T03:03:18.011Z,61.00
2022-11-22T03:05:21.384Z,130.02
2022-11-22T03:07:24.743Z,136.40
2022-11-22T03:09:29.273Z,120.03
2022-11-22T03:11:32.888Z,133.85
2022-11-22T03:13:36.172Z,156.07
2022-11-22T03:15:40.997Z,141.35
2022-11-22T03:17:44.866Z,83.40
2022-11-22T03:19:48.226Z,74.95
2022-11-22T03:21:51.827Z,47.00
2022-11-22T03:23:56.339Z,26.95
2022-11-22T03:25:59.969Z,35.22
2022-11-22T03:28:03.258Z,33.35
2022-11-22T03:30:07.650Z,35.30
2022-11-22T03:32:12.469Z,39.42
2022-11-22T03:34:16.233Z,37.88
2022-11-22T03:36:19.975Z,32.05
2022-11-22T03:38:23.367Z,40.17
2022-11-22T03:40:26.651Z,40.58
2022-11-22T03:42:30.021Z,26.13
2022-11-22T03:44:33.470Z,33.33
2022-11-22T03:46:36.886Z,30.13
2022-11-22T03:48:41.621Z,22.65
2022-11-22T03:50:45.530Z,25.42
2022-11-22T03:52:48.811Z,22.73
2022-11-22T03:54:52.304Z,22.25
2022-11-22T03:56:55.739Z,18.70
2022-11-22T03:58:59.117Z,28.08
2022-11-22T04:01:03.299Z,24.10
2022-11-22T04:03:06.690Z,25.92
2022-11-22T04:05:11.573Z,23.85
2022-11-22T04:07:14.949Z,26.42
2022-11-22T04:09:18.369Z,24.75
2022-11-22T04:11:21.804Z,24.20
2022-11-22T04:13:45.492Z,17.35
2022-11-22T04:15:47.847Z,22.42
2022-11-22T04:17:51.323Z,22.45
2022-11-22T04:20:21.977Z,24.58
2022-11-22T04:22:25.708Z,27.98
2022-11-22T04:24:46.284Z,27.35
2022-11-22T04:26:50.286Z,27.13
2022-11-22T04:29:09.342Z,26.70
2022-11-22T04:31:30.754Z,28.63
2022-11-22T04:33:34.124Z,24.95
2022-11-22T04:35:37.403Z,25.13
2022-11-22T04:37:42.569Z,23.42
2022-11-22T04:39:45.936Z,22.67
2022-11-22T04:42:09.240Z,30.63
2022-11-22T04:44:30.092Z,23.70
2022-11-22T04:46:33.652Z,31.77
2022-11-22T04:48:37.048Z,23.40
2022-11-22T04:50:59.777Z,33.17
2022-11-22T04:53:04.616Z,33.92
2022-11-22T04:55:08.555Z,30.60
2022-11-22T04:57:12.158Z,29.48
2022-11-22T04:59:15.597Z,27.08
2022-11-22T05:01:19.119Z,24.60
2022-11-22T05:03:22.632Z,25.50
2022-11-22T05:05:26.663Z,23.38
2022-11-22T05:07:30.113Z,22.88
2022-11-22T05:09:34.965Z,25.98
2022-11-22T05:11:38.250Z,25.60
2022-11-22T05:13:42.796Z,31.52
2022-11-22T05:15:46.081Z,27.25
2022-11-22T05:17:49.659Z,26.45
2022-11-22T05:19:53.152Z,30.88
2022-11-22T05:21:56.437Z,30.00
2022-11-22T05:23:58.912Z,35.50
2022-11-22T05:26:04.067Z,32.20
2022-11-22T05:28:07.435Z,22.58
2022-11-22T05:30:11.359Z,25.80
2022-11-22T05:32:14.625Z,26.02
2022-11-22T05:34:17.981Z,25.77
2022-11-22T05:36:22.265Z,26.67
2022-11-22T05:38:25.548Z,26.70
2022-11-22T05:40:28.915Z,32.80
2022-11-22T05:42:34.557Z,24.85
2022-11-22T05:44:37.845Z,31.85
2022-11-22T05:46:41.196Z,24.08
2022-11-22T05:48:46.189Z,27.60
2022-11-22T05:50:49.564Z,30.13
2022-11-22T05:52:53.000Z,20.65
2022-11-22T05:54:56.446Z,19.27
2022-11-22T05:56:59.776Z,33.22
2022-11-22T05:59:04.728Z,31.08
2022-11-22T06:01:09.715Z,27.52
2022-11-22T06:03:13.226Z,32.13
2022-11-22T06:05:16.742Z,21.77
2022-11-22T06:07:20.163Z,26.23
2022-11-22T06:09:24.291Z,26.25
2022-11-22T06:11:29.222Z,20.83
2022-11-22T06:13:36.505Z,22.50
2022-11-22T06:15:41.432Z,25.75
2022-11-22T06:17:44.992Z,25.05
2022-11-22T06:19:48.421Z,26.52
2022-11-22T06:21:51.819Z,29.17
2022-11-22T06:23:56.811Z,25.27
2022-11-22T06:26:00.749Z,27.55
2022-11-22T06:28:04.161Z,21.92
2022-11-22T06:30:08.756Z,33.22
2022-11-22T06:32:13.890Z,30.08
2022-11-22T06:34:17.319Z,29.65
2022-11-22T06:36:22.524Z,25.33
2022-11-22T06:38:25.808Z,31.08
2022-11-22T06:40:29.199Z,33.25
2022-11-22T06:42:32.699Z,36.90
2022-11-22T06:44:36.097Z,29.13
2022-11-22T06:46:39.581Z,30.83
2022-11-22T06:48:44.821Z,27.60
2022-11-22T06:50:48.178Z,31.38
2022-11-22T06:52:52.604Z,27.70
2022-11-22T06:54:55.987Z,34.25
2022-11-22T06:56:59.272Z,28.45
2022-11-22T06:59:04.327Z,32.88
2022-11-22T07:01:09.107Z,39.08
2022-11-22T07:03:12.577Z,36.67
2022-11-22T07:05:25.626Z,34.33
2022-11-22T07:07:29.511Z,33.22
2022-11-22T07:09:33.307Z,37.80
2022-11-22T07:11:37.807Z,28.85
2022-11-22T07:13:41.345Z,32.97
2022-11-22T07:15:44.693Z,33.88
2022-11-22T07:17:48.214Z,31.60
2022-11-22T07:19:51.506Z,27.35
2022-11-22T07:21:56.200Z,26.05
2022-11-22T07:23:59.474Z,27.10
2022-11-22T07:26:02.956Z,27.30
2022-11-22T07:28:06.464Z,25.80
2022-11-22T07:30:11.336Z,30.88
2022-11-22T07:32:14.624Z,27.70
2022-11-22T07:34:17.863Z,28.65
2022-11-22T07:36:22.596Z,26.85
2022-11-22T07:38:28.168Z,22.77
2022-11-22T07:40:31.508Z,24.50
2022-11-22T07:42:34.814Z,27.55
2022-11-22T07:44:38.069Z,29.88
2022-11-22T07:46:41.415Z,24.70
2022-11-22T07:48:44.778Z,26.83
2022-11-22T07:50:48.074Z,27.75
2022-11-22T07:52:56.921Z,40.55
2022-11-22T07:55:01.643Z,29.05
2022-11-22T07:57:05.142Z,26.60
2022-11-22T07:59:08.354Z,24.58
2022-11-22T08:01:13.623Z,26.98
2022-11-22T08:03:18.031Z,26.95
2022-11-22T08:05:22.313Z,26.45
2022-11-22T08:07:25.769Z,22.30
2022-11-22T08:09:29.232Z,24.50
2022-11-22T08:11:36.870Z,32.08
2022-11-22T08:13:40.484Z,28.58
2022-11-22T08:15:43.672Z,25.40
2022-11-22T08:17:46.869Z,23.63
2022-11-22T08:19:53.531Z,26.58
2022-11-22T08:21:58.647Z,26.80
2022-11-22T08:24:02.141Z,28.42
2022-11-22T08:26:06.040Z,26.08
2022-11-22T08:28:10.687Z,35.20
2022-11-22T08:30:14.691Z,28.88
2022-11-22T08:32:17.960Z,35.78
2022-11-22T08:34:21.168Z,29.63
2022-11-22T08:36:24.759Z,26.42
2022-11-22T08:38:28.568Z,30.65
2022-11-22T08:40:34.484Z,30.15
2022-11-22T08:42:39.956Z,28.58
2022-11-22T08:44:44.655Z,28.10
2022-11-22T08:46:48.010Z,26.38
2022-11-22T08:48:53.888Z,26.70
2022-11-22T08:50:59.262Z,29.60
2022-11-22T08:53:02.914Z,25.73
2022-11-22T08:55:07.278Z,31.80
2022-11-22T08:57:10.513Z,27.85
2022-11-22T08:59:13.884Z,28.90
2022-11-22T09:01:21.384Z,33.33
2022-11-22T09:03:24.988Z,29.55
2022-11-22T09:05:28.422Z,33.08
2022-11-22T09:09:56.302Z,32.67
2022-11-22T09:11:59.557Z,27.98
2022-11-22T09:14:02.879Z,30.30
2022-11-22T09:16:08.483Z,32.15
2022-11-22T09:18:13.186Z,31.95
2022-11-22T09:20:16.900Z,31.85
2022-11-22T09:22:22.835Z,31.50
2022-11-22T09:24:28.700Z,33.65
2022-11-22T09:26:31.945Z,38.00
2022-11-22T09:28:35.742Z,30.77
2022-11-22T09:30:38.924Z,31.05
2022-11-22T09:32:44.840Z,31.40
2022-11-22T09:34:49.538Z,29.73
2022-11-22T09:36:52.712Z,30.20
2022-11-22T09:38:57.171Z,29.83
2022-11-22T09:41:03.468Z,30.00
2022-11-22T09:43:18.526Z,26.77
2022-11-22T09:45:41.070Z,29.10
2022-11-22T09:47:53.962Z,28.27
2022-11-22T09:50:08.415Z,29.55
2022-11-22T09:52:16.235Z,22.35
2022-11-22T09:54:25.383Z,23.42
2022-11-22T09:56:32.243Z,24.88
2022-11-22T09:58:39.972Z,23.40
2022-11-22T10:00:50.686Z,24.40
2022-11-22T10:03:05.412Z,23.73
2022-11-22T10:05:18.838Z,27.55
2022-11-22T10:07:27.328Z,26.48
2022-11-22T10:09:40.238Z,22.50
2022-11-22T10:11:48.420Z,18.40
2022-11-22T10:13:57.581Z,22.42
2022-11-22T10:16:08.714Z,20.65
2022-11-22T10:18:19.327Z,21.77
2022-11-22T10:20:26.087Z,21.70
2022-11-22T10:22:31.418Z,17.63
2022-11-22T10:24:34.692Z,18.75
2022-11-22T10:26:39.456Z,24.05
2022-11-22T10:28:49.478Z,24.67
2022-11-22T10:31:02.496Z,18.00
2022-11-22T10:33:14.285Z,23.20
2022-11-22T10:35:29.754Z,21.23
2022-11-22T10:37:45.129Z,19.30
2022-11-22T10:40:02.108Z,21.85
2022-11-22T10:42:20.217Z,18.48
2022-11-22T10:44:35.928Z,19.33
2022-11-22T10:46:55.221Z,19.33
2022-11-22T10:49:08.479Z,18.25
2022-11-22T10:51:21.228Z,20.77
2022-11-22T10:53:35.775Z,18.80
2022-11-22T10:55:50.948Z,23.92
2022-11-22T10:58:03.490Z,20.58
2022-11-22T11:00:21.727Z,22.02
2022-11-22T11:02:44.631Z,17.38
2022-11-22T11:04:48.995Z,18.92
2022-11-22T11:07:14.075Z,19.80
2022-11-22T11:10:09.041Z,22.95
2022-11-22T11:11:48.079Z,18.35
2022-11-22T11:13:55.227Z,19.83
2022-11-22T11:16:01.964Z,19.38
2022-11-22T11:18:09.665Z,19.13
2022-11-22T11:20:21.287Z,23.40
2022-11-22T11:22:58.645Z,26.10
2022-11-22T11:24:53.067Z,25.43
2022-11-22T11:26:58.486Z,17.00
2022-11-22T11:29:38.365Z,18.77
2022-11-22T11:31:44.716Z,20.00
2022-11-22T11:33:48.685Z,19.40
2022-11-22T11:35:55.337Z,16.45
2022-11-22T11:38:00.040Z,19.10
2022-11-22T11:40:03.448Z,21.93
2022-11-22T11:42:22.627Z,21.20
2022-11-22T11:44:32.471Z,18.83
2022-11-22T11:46:46.681Z,19.95
2022-11-22T11:48:50.984Z,14.73
2022-11-22T11:50:54.429Z,18.75
2022-11-22T11:53:04.559Z,17.90
2022-11-22T11:55:18.735Z,15.52
2022-11-22T11:57:27.192Z,15.83
2022-11-22T11:59:43.713Z,16.65
2022-11-22T12:02:00.474Z,25.00
2022-11-22T12:04:06.347Z,12.57
2022-11-22T12:06:14.075Z,16.37
2022-11-22T12:08:31.563Z,17.30
2022-11-22T12:10:42.247Z,14.97
2022-11-22T12:12:47.871Z,18.77
2022-11-22T12:15:11.572Z,17.63
2022-11-22T12:17:25.987Z,19.00
2022-11-22T12:19:32.269Z,18.27
2022-11-22T12:21:46.414Z,16.90
2022-11-22T12:24:19.569Z,16.70
2022-11-22T12:26:21.970Z,17.83
2022-11-22T12:28:27.662Z,19.38
2022-11-22T12:30:33.160Z,15.27
2022-11-22T12:32:41.364Z,15.97
2022-11-22T12:34:52.885Z,15.75
2022-11-22T12:37:01.787Z,15.47
2022-11-22T12:39:10.708Z,16.38
2022-11-22T12:41:17.622Z,15.23
2022-11-22T12:43:24.454Z,15.38
2022-11-22T12:45:32.095Z,16.97
2022-11-22T12:47:40.826Z,14.25
2022-11-22T12:49:46.894Z,17.65
2022-11-22T12:51:55.124Z,21.15
2022-11-22T12:54:02.702Z,19.45
2022-11-22T12:56:20.163Z,16.73
2022-11-22T12:58:31.103Z,17.75
2022-11-22T13:00:41.395Z,18.67
2022-11-22T13:02:58.804Z,19.63
2022-11-22T13:05:05.644Z,19.42
2022-11-22T13:07:16.641Z,22.50
2022-11-22T13:09:23.193Z,20.95
2022-11-22T13:11:33.547Z,27.13
2022-11-22T13:13:40.727Z,21.83
2022-11-22T13:15:45.451Z,25.45
2022-11-22T13:17:49.023Z,20.92
2022-11-22T13:19:55.447Z,22.90
2022-11-22T13:22:12.059Z,16.75
2022-11-22T13:24:29.147Z,14.07
2022-11-22T13:26:43.169Z,15.35
2022-11-22T13:28:47.764Z,15.25
2022-11-22T13:31:14.104Z,11.85
2022-11-22T13:33:26.187Z,10.48
2022-11-22T13:35:33.117Z,8.85
2022-11-22T13:37:39.952Z,9.93
2022-11-22T13:39:47.078Z,12.30
2022-11-22T13:42:04.346Z,8.48
2022-11-22T13:44:29.770Z,8.90
2022-11-22T13:46:58.249Z,5.47
2022-11-22T13:49:35.311Z,4.57
2022-11-22T13:51:57.388Z,7.55
2022-11-22T13:54:34.416Z,4.22
2022-11-22T13:56:58.214Z,4.75
2022-11-22T13:59:15.611Z,3.58
2022-11-22T14:02:06.912Z,4.38
2022-11-22T14:04:27.320Z,3.80
2022-11-22T14:06:31.632Z,4.45
2022-11-22T14:08:37.234Z,3.75
2022-11-22T14:10:59.914Z,3.83
2022-11-22T14:13:20.524Z,3.40
2022-11-22T14:16:04.369Z,4.97
2022-11-22T14:18:21.772Z,4.18
2022-11-22T14:20:38.291Z,3.35
2022-11-22T14:22:51.388Z,3.80
2022-11-22T14:25:08.341Z,3.22
2022-11-22T14:27:28.141Z,3.58
2022-11-22T14:29:56.787Z,4.20
2022-11-22T14:32:05.085Z,4.35
2022-11-22T14:34:22.311Z,4.82
2022-11-22T14:36:25.596Z,5.63
2022-11-22T14:38:31.849Z,7.10
2022-11-22T14:40:37.911Z,7.30
2022-11-22T14:42:59.004Z,5.85
2022-11-22T14:45:03.834Z,5.20
2022-11-22T14:47:14.813Z,6.65
2022-11-22T14:49:24.650Z,5.20
2022-11-22T14:51:32.284Z,7.43
2022-11-22T14:53:41.880Z,8.90
2022-11-22T14:55:45.531Z,6.32
2022-11-22T14:57:53.168Z,7.05
2022-11-22T15:00:18.139Z,6.32
2022-11-22T15:03:03.121Z,7.18
2022-11-22T15:09:12.524Z,5.03
2022-11-22T15:09:23.223Z,5.28
2022-11-22T15:11:01.950Z,5.78
2022-11-22T15:13:36.784Z,6.13
2022-11-22T15:57:32.176Z,3.50
2022-11-22T15:59:39.501Z,5.95
2022-11-22T16:01:45.532Z,4.53
2022-11-22T16:03:52.184Z,5.22
2022-11-22T16:06:07.738Z,7.65
2022-11-22T16:08:16.480Z,5.85
2022-11-22T16:10:24.280Z,6.25
2022-11-22T16:12:30.352Z,5.05
2022-11-22T16:14:49.149Z,4.38
2022-11-22T16:16:54.416Z,6.38
2022-11-22T16:19:20.889Z,4.50
2022-11-22T16:21:29.315Z,4.30
2022-11-22T16:23:35.057Z,4.15
2022-11-22T16:25:41.821Z,7.35
2022-11-22T16:27:47.940Z,5.82
2022-11-22T16:29:52.457Z,4.82
2022-11-22T16:32:01.812Z,6.10
2022-11-22T16:34:13.729Z,4.70
2022-11-22T16:36:18.344Z,4.57
2022-11-22T16:38:21.778Z,9.45
2022-11-22T16:40:25.056Z,2.95
2022-11-22T16:42:29.954Z,4.25
2022-11-22T16:44:33.295Z,4.03
2022-11-22T16:46:36.525Z,6.15
2022-11-22T16:48:39.865Z,4.25
2022-11-22T16:50:43.518Z,5.80
2022-11-22T16:52:47.700Z,7.47
2022-11-22T16:54:51.171Z,5.50
2022-11-22T16:56:54.406Z,6.00
2022-11-22T16:59:00.358Z,9.45
2022-11-22T17:01:03.810Z,5.38
2022-11-22T17:03:07.246Z,5.35
2022-11-22T17:05:17.672Z,6.22
2022-11-22T17:07:20.939Z,4.72
2022-11-22T17:09:24.180Z,5.70
2022-11-22T17:11:30.952Z,5.50
2022-11-22T17:13:34.139Z,5.10
2022-11-22T17:15:41.154Z,4.60
2022-11-22T17:17:44.604Z,5.25
2022-11-22T17:19:55.398Z,4.85
2022-11-22T17:21:58.744Z,7.28
2022-11-22T17:24:03.697Z,6.15
2022-11-22T17:26:07.574Z,7.00
2022-11-22T17:28:10.761Z,6.40
2022-11-22T17:30:15.364Z,8.65
2022-11-22T17:32:20.057Z,7.18
2022-11-22T17:34:23.396Z,6.45
2022-11-22T17:36:29.376Z,4.47
2022-11-22T17:38:32.639Z,5.32
2022-11-22T17:40:36.123Z,6.18
2022-11-22T17:42:41.261Z,4.85
2022-11-22T17:44:44.777Z,5.90
2022-11-22T17:46:48.044Z,7.05
2022-11-22T17:48:57.934Z,4.00
2022-11-22T17:51:05.631Z,4.55
2022-11-22T17:53:09.904Z,4.75
2022-11-22T17:55:14.774Z,3.95
2022-11-22T17:57:18.961Z,4.38
2022-11-22T17:59:22.207Z,8.68
2022-11-22T18:01:25.440Z,3.25
2022-11-22T18:03:28.685Z,4.15
2022-11-22T18:05:35.672Z,4.05
2022-11-22T18:07:39.889Z,5.40
2022-11-22T18:09:43.161Z,2.47
2022-11-22T18:11:46.419Z,6.43
2022-11-22T18:13:49.917Z,2.70
2022-11-22T18:15:57.322Z,3.70
2022-11-22T18:18:03.638Z,3.35
2022-11-22T18:20:07.850Z,8.00
2022-11-22T18:22:12.569Z,3.60
2022-11-22T18:24:15.964Z,3.80
2022-11-22T18:28:42.840Z,4.30
2022-11-22T18:30:46.984Z,4.15
2022-11-22T18:32:50.376Z,2.90
2022-11-22T18:34:53.798Z,3.50
2022-11-22T18:37:02.141Z,3.53
2022-11-22T18:39:08.814Z,3.50
2022-11-22T18:41:12.181Z,3.65
2022-11-22T18:43:15.395Z,3.45
2022-11-22T18:45:20.370Z,2.35
2022-11-22T18:47:26.746Z,4.05
2022-11-22T18:49:30.650Z,3.38
2022-11-22T18:51:34.449Z,2.92
2022-11-22T18:53:39.117Z,3.15
2022-11-22T18:55:43.825Z,2.38
2022-11-22T18:57:47.522Z,2.00
2022-11-22T18:59:50.825Z,2.40
2022-11-22T19:01:54.203Z,3.10
2022-11-22T19:03:57.521Z,2.60
2022-11-22T19:06:00.781Z,4.35
2022-11-22T19:08:04.032Z,3.30
2022-11-22T19:10:08.990Z,3.65
2022-11-22T19:12:13.679Z,3.88
2022-11-22T19:14:17.107Z,2.88
2022-11-22T19:19:43.239Z,4.28
2022-11-22T19:21:46.499Z,4.18
2022-11-22T19:23:50.787Z,2.60
2022-11-22T19:25:54.124Z,2.72
2022-11-22T19:27:58.902Z,5.03
2022-11-22T19:30:03.236Z,2.38
2022-11-22T19:32:10.185Z,3.95
2022-11-22T19:34:16.245Z,2.33
2022-11-22T19:36:21.155Z,2.55
2022-11-22T19:38:24.413Z,3.00
2022-11-22T19:40:27.753Z,2.28
2022-11-22T19:42:33.657Z,2.28
2022-11-22T19:44:38.764Z,2.15
2022-11-22T19:46:42.716Z,1.50
2022-11-22T19:48:47.375Z,2.70
2022-11-22T19:50:50.783Z,2.33
2022-11-22T19:52:54.198Z,1.65
2022-11-22T19:54:57.545Z,4.20
2022-11-22T19:57:00.801Z,2.13
2022-11-22T19:59:06.345Z,2.10
2022-11-22T20:01:13.048Z,1.70
2022-11-22T20:03:16.389Z,2.92
2022-11-22T20:05:19.785Z,1.20
2022-11-22T20:07:23.071Z,1.95
2022-11-22T20:09:26.617Z,1.75
2022-11-22T20:11:29.979Z,1.98
2022-11-22T20:13:36.212Z,2.38
2022-11-22T20:15:39.847Z,4.32
2022-11-22T20:17:44.656Z,1.58
2022-11-22T20:19:48.024Z,1.60
2022-11-22T20:21:51.429Z,2.80
2022-11-22T20:23:55.325Z,1.90
2022-11-22T20:26:03.828Z,2.75
2022-11-22T20:28:07.320Z,1.30
2022-11-22T20:30:11.666Z,1.40
2022-11-22T20:32:15.264Z,4.03
2022-11-22T20:34:20.914Z,2.75
2022-11-22T20:36:26.220Z,1.40
2022-11-22T20:38:29.556Z,1.35
2022-11-22T20:40:33.002Z,1.63
2022-11-22T20:42:36.652Z,1.52
2022-11-22T20:44:40.096Z,1.33
2022-11-22T20:46:44.523Z,1.33
2022-11-22T20:48:59.618Z,2.35
2022-11-22T20:51:07.787Z,2.60
2022-11-22T20:53:11.139Z,1.88
2022-11-22T20:55:14.600Z,1.40
2022-11-22T20:57:17.885Z,1.45
2022-11-22T20:59:21.094Z,2.38
2022-11-22T21:01:25.939Z,1.73
2022-11-22T21:03:29.230Z,1.50
2022-11-22T21:05:32.604Z,1.60
2022-11-22T21:07:37.422Z,1.75
2022-11-22T21:09:40.804Z,0.85
2022-11-22T21:11:45.528Z,2.80
2022-11-22T21:13:49.427Z,2.08
2022-11-22T21:15:52.723Z,1.10
2022-11-22T21:18:23.622Z,1.90
2022-11-22T21:20:21.559Z,1.23
2022-11-22T21:22:30.198Z,1.80
2022-11-22T21:24:37.283Z,1.55
2022-11-22T21:26:40.730Z,2.15
2022-11-22T21:28:44.434Z,1.55
2022-11-22T21:30:47.772Z,1.40
2022-11-22T21:32:51.663Z,2.50
2022-11-22T21:34:54.893Z,1.40
2022-11-22T21:36:58.189Z,1.65
2022-11-22T21:39:01.674Z,2.75
2022-11-22T21:41:38.182Z,1.42
2022-11-22T21:43:31.397Z,2.47
2022-11-22T21:45:34.759Z,1.90
2022-11-22T21:47:38.079Z,1.65
2022-11-22T21:49:41.647Z,1.52
2022-11-22T21:51:45.210Z,2.78
2022-11-22T21:53:48.565Z,0.98
2022-11-22T21:55:52.760Z,3.22
2022-11-22T21:57:57.586Z,1.17
2022-11-22T22:00:00.890Z,1.10
2022-11-22T22:02:04.318Z,1.30
2022-11-22T22:04:07.889Z,1.77
2022-11-22T22:06:11.216Z,3.88
2022-11-22T22:08:14.598Z,2.60
2022-11-22T22:10:18.123Z,2.20
2022-11-22T22:12:21.324Z,1.15
2022-11-22T22:14:27.207Z,2.38
2022-11-22T22:16:30.491Z,2.28
2022-11-22T22:18:35.049Z,1.25
2022-11-22T22:20:38.509Z,2.55
2022-11-22T22:22:41.903Z,1.00
2022-11-22T22:24:45.336Z,2.03
2022-11-22T22:26:49.609Z,1.30
2022-11-22T22:28:54.535Z,2.53
2022-11-22T22:31:10.319Z,1.05
2022-11-22T22:33:13.588Z,1.05
2022-11-22T22:35:17.111Z,1.00
2022-11-22T22:37:20.691Z,0.90
2022-11-22T22:39:24.022Z,1.00
2022-11-22T22:41:27.335Z,1.17
2022-11-22T22:43:32.372Z,1.77
2022-11-22T22:45:40.557Z,1.30
2022-11-22T22:47:45.274Z,1.20
2022-11-22T22:49:48.566Z,1.23
2022-11-22T22:51:52.979Z,1.52
2022-11-22T22:53:57.113Z,1.05
2022-11-22T22:56:01.076Z,1.50
2022-11-22T22:58:04.752Z,2.28
2022-11-22T23:00:10.470Z,2.22
2022-11-22T23:02:13.731Z,1.35
2022-11-22T23:04:18.429Z,1.10
2022-11-22T23:06:23.276Z,1.15
2022-11-22T23:08:26.548Z,2.45
2022-11-22T23:10:29.884Z,3.10
2022-11-22T23:12:33.169Z,3.33
2022-11-22T23:14:36.539Z,2.13
2022-11-22T23:16:39.865Z,1.20
2022-11-22T23:18:44.959Z,2.47
2022-11-22T23:20:49.753Z,2.08
2022-11-22T23:22:53.051Z,1.10
2022-11-22T23:24:56.397Z,2.03
2022-11-22T23:26:59.720Z,2.25
2022-11-22T23:29:03.291Z,3.08
2022-11-22T23:31:08.143Z,1.80
2022-11-22T23:33:11.403Z,2.35
2022-11-22T23:35:14.761Z,1.10
2022-11-22T23:37:19.452Z,1.98
2022-11-22T23:39:22.737Z,1.40
2022-11-22T23:41:26.592Z,0.82
2022-11-22T23:43:30.237Z,3.53
2022-11-22T23:45:33.426Z,2.20
2022-11-22T23:47:36.779Z,1.35
2022-11-22T23:49:40.131Z,2.17
2022-11-22T23:51:43.524Z,1.17
2022-11-22T23:53:48.363Z,1.50
2022-11-22T23:55:51.620Z,1.20
2022-11-22T23:57:54.913Z,1.52
2022-11-22T23:59:58.351Z,4.15
